createdAt,value
2023-02-13T00:04:49.910Z,100549.38
2023-02-13T00:10:11.711Z,100547.63
2023-02-13T00:15:33.638Z,100546.78
2023-02-13T00:21:04.692Z,100547.63
2023-02-13T00:26:26.368Z,100545.91
2023-02-13T00:31:48.143Z,100547.66
2023-02-13T00:37:09.944Z,100539.00
2023-02-13T00:42:31.621Z,100536.41
2023-02-13T00:47:53.290Z,100541.59
2023-02-13T00:53:15.019Z,100538.97
2023-02-13T00:58:37.051Z,100541.59
2023-02-13T01:03:58.781Z,100541.53
2023-02-13T01:09:20.536Z,100533.78
2023-02-13T01:14:42.197Z,100534.66
2023-02-13T01:20:03.928Z,100538.03
2023-02-13T01:25:25.658Z,100533.75
2023-02-13T01:30:53.505Z,100530.28
2023-02-13T01:36:15.483Z,100524.28
2023-02-13T01:41:37.218Z,100526.00
2023-02-13T01:46:58.985Z,100526.03
2023-02-13T01:52:20.706Z,100530.38
2023-02-13T01:57:48.971Z,100529.50
2023-02-13T02:03:33.492Z,100523.44
2023-02-13T02:09:00.087Z,100519.97
2023-02-13T02:14:21.890Z,100529.44
2023-02-13T02:19:53.887Z,100532.00
2023-02-13T02:25:38.565Z,100528.50
2023-02-13T02:31:37.907Z,100530.19
2023-02-13T02:37:50.786Z,100525.03
2023-02-13T02:43:31.541Z,100525.88
2023-02-13T02:49:25.701Z,100522.41
2023-02-13T02:55:09.071Z,100515.53
2023-02-13T03:00:53.590Z,100508.72
2023-02-13T03:06:21.910Z,100520.81
2023-02-13T03:12:07.249Z,100527.66
2023-02-13T03:17:47.551Z,100522.34
2023-02-13T03:23:22.902Z,100532.53
2023-02-13T03:29:52.925Z,100530.03
2023-02-13T03:35:55.927Z,100534.34
2023-02-13T03:41:26.647Z,100532.75
2023-02-13T03:46:52.603Z,100532.75
2023-02-13T03:52:29.662Z,100549.91
2023-02-13T03:58:15.834Z,100536.19
2023-02-13T04:03:59.100Z,100551.69
2023-02-13T04:09:20.862Z,100554.22
2023-02-13T04:14:57.287Z,100569.75
2023-02-13T04:20:19.384Z,100567.09
2023-02-13T04:25:46.097Z,100561.03
2023-02-13T04:31:07.822Z,100569.59
2023-02-13T04:36:29.756Z,100569.66
2023-02-13T04:41:51.429Z,100564.41
2023-02-13T04:47:13.144Z,100566.19
2023-02-13T04:52:34.802Z,100569.63
2023-02-13T04:57:57.155Z,100574.88
2023-02-13T05:03:19.113Z,100579.84
2023-02-13T05:08:40.930Z,100587.66
2023-02-13T05:14:02.602Z,100580.69
2023-02-13T05:19:24.268Z,100575.41
2023-02-13T05:24:45.938Z,100578.16
2023-02-13T05:30:08.235Z,100579.09
2023-02-13T05:35:30.932Z,100579.00
2023-02-13T05:40:52.643Z,100582.41
2023-02-13T05:46:14.493Z,100580.50
2023-02-13T05:51:36.574Z,100578.88
2023-02-13T05:56:58.259Z,100574.63
2023-02-13T06:02:19.930Z,100579.75
2023-02-13T06:07:41.660Z,100564.25
2023-02-13T06:13:03.377Z,100571.69
2023-02-13T06:18:25.101Z,100574.34
2023-02-13T06:23:46.801Z,100585.53
2023-02-13T06:29:09.291Z,100583.72
2023-02-13T06:34:31.022Z,100582.94
2023-02-13T06:39:52.697Z,100581.22
2023-02-13T06:45:14.826Z,100587.47
2023-02-13T06:50:36.517Z,100588.50
2023-02-13T06:55:58.212Z,100590.06
2023-02-13T07:01:20.069Z,100586.78
2023-02-13T07:06:41.849Z,100590.31
2023-02-13T07:12:06.673Z,100597.03
2023-02-13T07:17:29.076Z,100599.66
2023-02-13T07:22:50.963Z,100597.13
2023-02-13T07:28:13.597Z,100605.66
2023-02-13T07:33:42.106Z,100600.47
2023-02-13T07:39:04.102Z,100604.75
2023-02-13T07:44:25.798Z,100618.44
2023-02-13T07:49:47.657Z,100620.09
2023-02-13T07:55:11.581Z,100617.63
2023-02-13T08:00:33.309Z,100607.38
2023-02-13T08:05:55.237Z,100607.22
2023-02-13T08:11:47.091Z,100609.91
2023-02-13T08:17:09.774Z,100609.22
2023-02-13T08:22:31.453Z,100608.50
2023-02-13T08:27:53.122Z,100617.97
2023-02-13T08:33:14.790Z,100605.09
2023-02-13T08:38:36.509Z,100599.13
2023-02-13T08:43:58.192Z,100590.56
2023-02-13T08:49:19.895Z,100588.03
2023-02-13T08:54:41.643Z,100581.16
2023-02-13T09:00:03.858Z,100583.78
2023-02-13T09:05:25.553Z,100589.00
2023-02-13T09:10:47.346Z,100587.28
2023-02-13T09:16:10.573Z,100592.50
2023-02-13T09:21:32.254Z,100586.47
2023-02-13T09:26:54.053Z,100583.00
2023-02-13T09:32:16.965Z,100586.47
2023-02-13T09:37:38.644Z,100588.22
2023-02-13T09:43:13.878Z,100583.88
2023-02-13T09:48:39.081Z,100593.34
2023-02-13T09:54:07.408Z,100597.66
2023-02-13T09:59:56.967Z,100593.31
2023-02-13T10:05:44.306Z,100592.41
2023-02-13T10:11:20.638Z,100592.41
2023-02-13T10:16:50.770Z,100584.56
2023-02-13T10:22:18.276Z,100602.72
2023-02-13T10:28:04.042Z,100588.88
2023-02-13T10:33:30.278Z,100583.56
2023-02-13T10:39:02.500Z,100590.41
2023-02-13T10:44:50.557Z,100579.13
2023-02-13T10:50:30.795Z,100568.69
2023-02-13T10:56:03.986Z,100559.09
2023-02-13T11:01:49.998Z,100562.44
2023-02-13T11:07:16.118Z,100539.75
2023-02-13T11:12:37.845Z,100540.59
2023-02-13T11:18:11.949Z,100544.81
2023-02-13T11:23:38.086Z,100548.09
2023-02-13T11:29:06.234Z,100541.00
2023-02-13T11:34:31.670Z,100540.78
2023-02-13T11:39:58.756Z,100538.94
2023-02-13T11:45:23.158Z,100536.19
2023-02-13T11:50:52.225Z,100532.66
2023-02-13T11:56:15.736Z,100522.97
2023-02-13T12:01:37.528Z,100529.16
2023-02-13T12:07:11.686Z,100526.38
2023-02-13T12:12:44.027Z,100526.16
2023-02-13T12:18:08.483Z,100528.44
2023-02-13T12:23:57.677Z,100514.16
2023-02-13T12:29:54.319Z,100516.59
2023-02-13T12:35:21.971Z,100512.78
2023-02-13T12:41:08.646Z,100511.44
2023-02-13T12:47:10.545Z,100501.72
2023-02-13T12:52:41.293Z,100495.03
2023-02-13T12:58:15.679Z,100490.47
2023-02-13T13:03:49.429Z,100485.13
2023-02-13T13:09:20.016Z,100484.13
2023-02-13T13:14:59.240Z,100475.44
2023-02-13T13:20:48.713Z,100469.50
2023-02-13T13:26:18.344Z,100466.78
2023-02-13T13:31:40.484Z,100473.66
2023-02-13T13:37:23.843Z,100467.44
2023-02-13T13:43:08.173Z,100466.59
2023-02-13T13:48:51.442Z,100466.59
2023-02-13T13:54:13.068Z,100461.28
2023-02-13T13:59:37.766Z,100451.41
2023-02-13T14:05:20.984Z,100455.75
2023-02-13T14:11:01.437Z,100454.06
2023-02-13T14:16:41.593Z,100458.47
2023-02-13T14:22:27.819Z,100458.47
2023-02-13T14:28:02.091Z,100459.06
2023-02-13T14:33:28.172Z,100465.22
2023-02-13T14:38:57.863Z,100459.81
2023-02-13T14:44:27.073Z,100453.72
2023-02-13T14:49:51.050Z,100459.81
2023-02-13T14:55:33.663Z,100451.88
2023-02-13T15:01:29.114Z,100445.81
2023-02-13T15:06:54.080Z,100440.44
2023-02-13T15:12:28.400Z,100439.66
2023-02-13T15:17:50.800Z,100436.28
2023-02-13T15:23:21.585Z,100433.72
2023-02-13T15:28:58.897Z,100428.03
2023-02-13T15:34:25.137Z,100428.91
2023-02-13T15:39:46.808Z,100424.72
2023-02-13T15:45:16.449Z,100430.78
2023-02-13T15:50:42.173Z,100440.13
2023-02-13T15:56:05.429Z,100443.66
2023-02-13T16:01:28.588Z,100436.97
2023-02-13T16:06:53.039Z,100441.28
2023-02-13T16:12:22.837Z,100446.09
2023-02-13T16:17:46.808Z,100447.91
2023-02-13T16:23:17.938Z,100442.22
2023-02-13T16:28:39.769Z,100446.19
2023-02-13T16:34:14.361Z,100433.34
2023-02-13T16:39:36.073Z,100443.31
2023-02-13T16:45:25.506Z,100441.91
2023-02-13T16:50:55.318Z,100449.09
2023-02-13T16:56:17.085Z,100455.28
2023-02-13T17:01:38.768Z,100458.97
2023-02-13T17:07:00.485Z,100463.31
2023-02-13T17:12:23.596Z,100470.47
2023-02-13T17:17:45.478Z,100468.84
2023-02-13T17:23:12.049Z,100475.00
2023-02-13T17:28:33.717Z,100480.34
2023-02-13T17:33:55.454Z,100497.06
2023-02-13T17:39:17.153Z,100499.66
2023-02-13T17:44:38.822Z,100498.25
2023-02-13T17:50:09.097Z,100500.03
2023-02-13T17:55:33.740Z,100505.34
2023-02-13T18:00:55.450Z,100503.56
2023-02-13T18:06:17.154Z,100504.44
2023-02-13T18:11:38.892Z,100501.91
2023-02-13T18:17:00.802Z,100514.97
2023-02-13T18:22:22.490Z,100524.66
2023-02-13T18:27:44.592Z,100523.00
2023-02-13T18:33:06.306Z,100523.06
2023-02-13T18:38:29.211Z,100524.88
2023-02-13T18:43:50.909Z,100523.25
2023-02-13T18:49:12.626Z,100524.94
2023-02-13T18:54:34.348Z,100532.00
2023-02-13T18:59:56.062Z,100539.72
2023-02-13T19:05:18.216Z,100536.25
2023-02-13T19:10:39.897Z,100538.00
2023-02-13T19:16:10.054Z,100544.00
2023-02-13T19:21:33.845Z,100541.44
2023-02-13T19:26:55.540Z,100542.34
2023-02-13T19:32:17.409Z,100538.88
2023-02-13T19:37:44.059Z,100536.34
2023-02-13T19:43:06.439Z,100534.63
2023-02-13T19:48:28.187Z,100533.81
2023-02-13T19:53:56.535Z,100534.69
2023-02-13T19:59:18.328Z,100536.41
2023-02-13T20:04:40.033Z,100538.16
2023-02-13T20:10:01.759Z,100522.63
2023-02-13T20:15:24.635Z,100515.72
2023-02-13T20:20:47.167Z,100519.19
2023-02-13T20:26:11.277Z,100525.22
2023-02-13T20:31:34.348Z,100527.78
2023-02-13T20:36:56.183Z,100530.41
2023-02-13T20:42:17.852Z,100540.72
2023-02-13T20:47:41.685Z,100537.28
2023-02-13T20:53:03.363Z,100533.84
2023-02-13T20:58:25.035Z,100537.28
2023-02-13T21:03:49.873Z,100530.38
2023-02-13T21:09:12.729Z,100520.03
2023-02-13T21:14:34.582Z,100508.75
2023-02-13T21:19:56.324Z,100507.03
2023-02-13T21:25:18.695Z,100508.81
2023-02-13T21:30:40.492Z,100511.41
2023-02-13T21:36:04.730Z,100504.50
2023-02-13T21:41:27.222Z,100507.94
2023-02-13T21:46:49.015Z,100502.75
2023-02-13T21:52:10.806Z,100501.88
2023-02-13T21:57:32.539Z,100492.38
2023-02-13T22:02:54.364Z,100489.78
2023-02-13T22:08:16.072Z,100494.09
2023-02-13T22:13:41.479Z,100495.84
2023-02-13T22:19:05.271Z,100494.97
2023-02-13T22:24:27.686Z,100501.00
2023-02-13T22:29:51.231Z,100503.59
2023-02-13T22:35:12.994Z,100509.63
2023-02-13T22:40:35.666Z,100501.84
2023-02-13T22:46:02.552Z,100501.00
2023-02-13T22:51:27.298Z,100505.28
2023-02-13T22:56:49.070Z,100497.50
2023-02-13T23:02:10.919Z,100500.13
2023-02-13T23:07:32.779Z,100493.19
2023-02-13T23:12:54.448Z,100496.63
2023-02-13T23:18:17.863Z,100490.53
2023-02-13T23:23:39.601Z,100488.88
2023-02-13T23:29:01.330Z,100494.88
2023-02-13T23:34:23.069Z,100498.25
2023-02-13T23:39:45.042Z,100485.38
2023-02-13T23:45:07.159Z,100485.34
2023-02-13T23:50:28.858Z,100488.78
2023-02-13T23:55:50.637Z,100483.53
